Texas General Land Office
 Texas General Land Office
 George P. Bush, Commissioner

 Oil Spill Prevention
 & Response

Texas Automated Buoy System
Real Time Ocean Observations
Supporting Oil Spill Prevention and
Response since 1995
Geochemical and Environmental Research Group

TABS Buoy X -- Texas Automated Buoy System

TABS Buoy X Conditions at 09/22/2017 04:41 UTC (09/21/2017 23:41 CDT)
27° 3.9600'N   96° 20.2980'W
AA3900 DCS - sensor depth 2m
Anemometer height: 4m
Water Depth: 950 feet (289 meters)
Speed: N/A            Direction: N/A            Water Temp: 0°C (32 °F)
System Voltage: 0.0 V Signal Strength: 0.0 dB Ping Count: 0
Wind: 12.8 m/s (24.8 kts)
          From 87°T (E)
Air Temp: 27 °C (80 °F)
Relative Humidity:  92 %
Pressure: 991.1 mb (29.27 inHg)
Waves: 6.8 m (22.2 ft) @ 12 sec
  


IMPORTANT: Notice to Mariners


Today's Velocity Data (download)

   Date   |  Time  |   East |   North|   Speed|  Dir | WaterT |
          |  (UTC) |  (cm/s)|  (cm/s)|  (cm/s)| (°T) |  (°C)  |
==========+========+========+========+========+======+========+



       
 

Today's Wave Data    


   Date   |  Time  |Sig Wave Ht| Peak Period|
          |  (UTC) | (meters)  |    (sec)   |
==========+========+===========+============+
08/25/2017 00:07:27      1.7        8
08/25/2017 01:08:24      1.7        7
08/25/2017 02:07:46      2.0        9
08/25/2017 03:07:39      1.9       11
08/25/2017 04:07:41      2.8        7
08/25/2017 05:07:21      2.9       11
08/25/2017 06:07:58      3.1       11
08/25/2017 07:07:41      3.1       11
08/25/2017 08:08:13      3.0        9
08/25/2017 09:07:47      3.4       10
08/25/2017 10:08:23      4.3       12
08/25/2017 11:07:38      4.8       11
08/25/2017 12:07:27      5.5       11
08/25/2017 13:07:22      6.8       12
       
 

Today's Temperature - Salinity Data     (Download)


   Date   |  Time  |   Temp |   Cond |Salinity| Density|SoundVel|
          |  (UTC) |   (°C) | (ms/cm)|        | kg/m^3 |  (m/s) |
==========+========+========+========+========+========+========+
08/25/2017 00:00:00    29.75    59.99    36.30     0.00     0.00
08/25/2017 00:30:00    29.72    59.96    36.30     0.00     0.00
08/25/2017 01:00:00    29.74    59.97    36.30     0.00     0.00
08/25/2017 01:30:00    29.71    59.94    36.30     0.00     0.00
08/25/2017 02:00:00    29.70    59.93    36.30     0.00     0.00
08/25/2017 02:30:00    29.65    59.87    36.29     0.00     0.00
08/25/2017 03:00:00    29.64    59.87    36.30     0.00     0.00
08/25/2017 03:30:00    29.62    59.85    36.30     0.00     0.00
08/25/2017 04:00:00    29.59    59.81    36.30     0.00     0.00
08/25/2017 04:30:00    29.59    59.82    36.31     0.00     0.00
08/25/2017 05:00:00    29.58    59.81    36.31     0.00     0.00
08/25/2017 05:30:00    29.58    59.81    36.31     0.00     0.00
08/25/2017 06:00:00    29.57    59.81    36.31     0.00     0.00
08/25/2017 06:30:00    29.56    59.77    36.29     0.00     0.00
08/25/2017 07:00:00    29.55    59.76    36.30     0.00     0.00
08/25/2017 07:30:00    29.52    59.74    36.30     0.00     0.00
08/25/2017 08:00:00    29.49    59.69    36.29     0.00     0.00
08/25/2017 08:30:00    29.50    59.72    36.30     0.00     0.00
08/25/2017 09:00:00    29.50    59.72    36.31     0.00     0.00
08/25/2017 09:30:00    29.49    59.71    36.31     0.00     0.00
08/25/2017 10:00:00    29.48    59.71    36.31     0.00     0.00
08/25/2017 10:30:00    29.48    59.67    36.29     0.00     0.00
08/25/2017 11:00:00    29.48    59.62    36.25     0.00     0.00
08/25/2017 11:30:00    29.49    59.66    36.27     0.00     0.00
08/25/2017 12:00:00    29.47    59.64    36.27     0.00     0.00
08/25/2017 12:30:00    29.47    59.62    36.26     0.00     0.00
08/25/2017 13:00:00    29.45    59.34    36.08     0.00     0.00
08/25/2017 13:30:00    29.44    59.59    36.26     0.00     0.00